METAR stanice u blizini

 

LDDU - Dubrovnik-Cilipi, Croatia
Distance from station: JJZ 17km
Ažurirano: 06/02/2023 23:30
Vedro
Vedro
 Pravac vetra SI
Vetar: SI 43 km/h, Maks.: 63 km/h
Temperatura: 1°C
Osećaj hladnoće: -6°C
Tačka rose: -15°C
Vlažnost: 29%
Pritisak: 1029 hPa
Pregled: Vedro
Vidljivost: greater than 10 km
2023/02/06 22:30 LDDU 062230Z 04023G34KT 320V070 CAVOK 01/M15 Q1029
LYTV - Tivat, Montenegro
Distance from station: JI 48km
Ažurirano: 06/02/2023 23:00
Vedro
Vedro
 Pravac vetra S
Vetar: S 19 km/h, Maks.: 48 km/h
Temperatura: 2°C
Osećaj hladnoće: -2°C
Tačka rose: -15°C
Vlažnost: 27%
Pritisak: 1030 hPa
Pregled: Vedro
Vidljivost: greater than 10 km
2023/02/06 22:00 LYTV 062200Z AUTO 35010G26KT CAVOK 02/M15 Q1030
LQMO - Mostar Airport, Bosnia-Herzegovina
Distance from station: SSZ 76km
Ažurirano: 06/02/2023 23:00
Few Clouds
Few Clouds
 Pravac vetra I
Vetar: I 9 km/h
Temperatura: -2°C
Osećaj hladnoće: -6°C
Tačka rose: -13°C
Vlažnost: 43%
Pritisak: 1031 hPa
Oblaci: Few Clouds
Vidljivost: 10 km
Cloud details: Few Clouds 1372 m
2023/02/06 22:00 LQMO 062200Z 09005KT 050V190 9999 FEW045 M02/M13 Q1031
 
LYPG - Podgorica(Titogr, Montenegro
Distance from station: IJI 84km
Ažurirano: 06/02/2023 23:00
Vedro
Vedro
 Pravac vetra S
Vetar: S 28 km/h, Maks.: 48 km/h
Temperatura: 0°C
Osećaj hladnoće: -6°C
Tačka rose: -14°C
Vlažnost: 34%
Pritisak: 1031 hPa
Pregled: Vedro
Vidljivost: greater than 10 km
2023/02/06 22:00 LYPG 062200Z 01015G26KT CAVOK 00/M14 Q1031 NOSIG
LQSA - Sarajevo/Butmir, Bosnia-Herzegovina
Distance from station: S 123km
Ažurirano: 06/02/2023 23:00
Mostly Cloudy
Mostly Cloudy
 Pravac vetra S
Vetar: S 7 km/h
Temperatura: -4°C
Osećaj hladnoće: -7°C
Tačka rose: -9°C
Vlažnost: 69%
Pritisak: 1033 hPa
Oblaci: Mostly Cloudy
Vidljivost: 10 km
Cloud details: Mostly Cloudy 1067 m
2023/02/06 22:00 LQSA 062200Z 35004KT 320V030 9999 BKN035 M04/M09 Q1033 NOSIG
LDSB - Bol Airport, Croatia
Distance from station: ZSZ 149km
Ažurirano: 13/01/2023 13:00
NOT Current
Vedro
Vedro
 Pravac vetra JJZ
Vetar: JJZ 7 km/h
Temperatura: 9°C
Osećaj hladnoće: 8°C
Tačka rose: 4°C
Vlažnost: 71%
Pritisak: 1018 hPa
Pregled: Vedro
Vidljivost: greater than 10 km
2023/01/13 12:00 LDSB 131200Z 21004KT 160V240 CAVOK 09/04 Q1018
 
LYUZ - Uzice-Ponikve, Serbia
Distance from station: SI 172km
Ažurirano: 04/11/2021 00:30
NOT Current

 Pravac vetra varies
Vetar: varies 9 km/h
Temperatura: 14°C
Tačka rose: 7°C
Vlažnost: 63%
Pritisak: 1010 hPa
Vidljivost: 10 km
2021/11/03 23:30 LYUZ 032330Z AUTO VRB05KT 9999 ////// 14/07 Q1010
LATI - Tirana, Albania
Distance from station: JI 183km
Ažurirano: 06/02/2023 23:20
Vedro
Vedro
 Pravac vetra varies
Vetar: varies 6 km/h
Temperatura: 0°C
Tačka rose: -13°C
Vlažnost: 37%
Pritisak: 1028 hPa
Pregled: Vedro
Vidljivost: greater than 10 km
2023/02/06 22:20 LATI 062220Z VRB03KT CAVOK M00/M13 Q1028 NOSIG
LDSP - Split/Kastel Sta, Croatia
Distance from station: ZSZ 188km
Ažurirano: 06/02/2023 23:30
Vedro
Vedro
 Pravac vetra SI
Vetar: SI 20 km/h
Temperatura: 1°C
Osećaj hladnoće: -4°C
Tačka rose: -12°C
Vlažnost: 38%
Pritisak: 1033 hPa
Pregled: Vedro
Vidljivost: greater than 10 km
2023/02/06 22:30 LDSP 062230Z AUTO 05011KT CAVOK 01/M12 Q1033
 
LQTZ - Tuzla, Bosnia-Herzegovina
Distance from station: S 198km
Ažurirano: 06/02/2023 23:00
Partly Cloudy
Partly Cloudy
 Pravac vetra S
Vetar: S 6 km/h
Temperatura: -2°C
Tačka rose: -8°C
Vlažnost: 64%
Pritisak: 1036 hPa
Oblaci: Partly Cloudy
Vidljivost: 10 km
Cloud details: Partly Cloudy 1219 m
2023/02/06 22:00 LQTZ 062200Z 01003KT 9999 SCT040 M02/M08 Q1036